createdAt,value
2018-03-27T00:00:45.197Z,92853.19
2018-03-27T00:03:11.570Z,92853.13
2018-03-27T00:05:38.295Z,92842.05
2018-03-27T00:08:05.571Z,92846.88
2018-03-27T00:10:31.929Z,92841.24
2018-03-27T00:12:58.336Z,92844.31
2018-03-27T00:15:24.742Z,92845.70
2018-03-27T00:17:51.049Z,92845.81
2018-03-27T00:20:17.627Z,92845.15
2018-03-27T00:22:44.019Z,92843.23
2018-03-27T00:25:10.469Z,92842.22
2018-03-27T00:27:49.143Z,92837.28
2018-03-27T00:30:27.877Z,92837.45
2018-03-27T00:33:06.693Z,92844.59
2018-03-27T00:35:45.354Z,92844.91
2018-03-27T00:38:24.114Z,92847.43
2018-03-27T00:40:50.217Z,92844.87
2018-03-27T00:43:16.601Z,92839.96
2018-03-27T00:45:43.033Z,92839.41
2018-03-27T00:48:09.434Z,92843.14
2018-03-27T00:50:35.794Z,92850.27
2018-03-27T00:53:02.220Z,92845.38
2018-03-27T00:55:28.618Z,92846.91
2018-03-27T00:57:54.944Z,92845.28
2018-03-27T01:00:21.363Z,92844.45
2018-03-27T01:02:47.801Z,92850.98
2018-03-27T01:05:14.288Z,92848.88
2018-03-27T01:07:40.669Z,92846.88
2018-03-27T01:10:07.117Z,92845.91
2018-03-27T01:12:33.470Z,92847.28
2018-03-27T01:14:59.897Z,92844.22
2018-03-27T01:17:26.258Z,92845.44
2018-03-27T01:19:52.640Z,92845.50
2018-03-27T01:22:19.085Z,92841.75
2018-03-27T01:24:45.613Z,92843.03
2018-03-27T01:27:11.955Z,92838.83
2018-03-27T01:29:38.374Z,92839.18
2018-03-27T01:32:04.728Z,92839.96
2018-03-27T01:34:31.179Z,92835.34
2018-03-27T01:36:57.547Z,92835.59
2018-03-27T01:39:23.928Z,92836.02
2018-03-27T01:41:50.315Z,92836.58
2018-03-27T01:44:16.666Z,92833.08
2018-03-27T01:46:43.181Z,92836.22
2018-03-27T01:49:09.549Z,92837.15
2018-03-27T01:51:35.988Z,92829.86
2018-03-27T01:54:02.335Z,92834.01
2018-03-27T01:56:29.124Z,92833.53
2018-03-27T01:58:55.451Z,92830.58
2018-03-27T02:01:21.755Z,92833.70
2018-03-27T02:03:48.131Z,92831.15
2018-03-27T02:06:14.652Z,92828.63
2018-03-27T02:08:41.002Z,92820.53
2018-03-27T02:11:13.235Z,92825.72
2018-03-27T02:13:45.623Z,92826.17
2018-03-27T02:16:17.835Z,92832.53
2018-03-27T02:18:50.185Z,92825.72
2018-03-27T02:21:22.510Z,92826.23
2018-03-27T02:23:48.956Z,92829.10
2018-03-27T02:26:15.322Z,92830.90
2018-03-27T02:28:41.694Z,92831.30
2018-03-27T02:31:08.074Z,92827.77
2018-03-27T02:33:34.416Z,92836.84
2018-03-27T02:36:01.127Z,92830.68
2018-03-27T02:38:27.495Z,92829.00
2018-03-27T02:40:53.843Z,92833.72
2018-03-27T02:43:20.223Z,92837.56
2018-03-27T02:45:46.806Z,92837.62
2018-03-27T02:48:13.147Z,92840.12
2018-03-27T02:50:39.494Z,92835.52
2018-03-27T02:53:05.851Z,92833.89
2018-03-27T02:55:32.275Z,92835.34
2018-03-27T02:57:58.678Z,92830.93
2018-03-27T03:00:25.058Z,92831.23
2018-03-27T03:02:51.376Z,92832.00
2018-03-27T03:05:17.859Z,92842.88
2018-03-27T03:07:44.283Z,92836.98
2018-03-27T03:10:10.601Z,92838.38
2018-03-27T03:12:37.027Z,92829.87
2018-03-27T03:15:03.534Z,92834.17
2018-03-27T03:17:29.848Z,92840.69
2018-03-27T03:19:56.357Z,92835.92
2018-03-27T03:22:22.732Z,92839.30
2018-03-27T03:24:49.093Z,92844.03
2018-03-27T03:27:15.415Z,92847.11
2018-03-27T03:29:41.732Z,92844.17
2018-03-27T03:32:08.107Z,92853.58
2018-03-27T03:34:34.430Z,92853.86
2018-03-27T03:37:00.881Z,92853.36
2018-03-27T03:39:27.227Z,92853.81
2018-03-27T03:41:53.614Z,92846.31
2018-03-27T03:44:20.014Z,92858.13
2018-03-27T03:46:46.407Z,92854.89
2018-03-27T03:49:12.770Z,92851.03
2018-03-27T03:51:39.266Z,92850.67
2018-03-27T03:54:05.650Z,92852.06
2018-03-27T03:56:32.028Z,92848.21
2018-03-27T03:58:58.400Z,92854.63
2018-03-27T04:01:24.700Z,92852.28
2018-03-27T04:03:51.074Z,92855.77
2018-03-27T04:06:19.573Z,92862.59
2018-03-27T04:08:45.862Z,92869.41
2018-03-27T04:11:12.208Z,92870.28
2018-03-27T04:13:38.566Z,92875.48
2018-03-27T04:16:04.946Z,92878.73
2018-03-27T04:18:31.256Z,92877.59
2018-03-27T04:20:57.614Z,92883.91
2018-03-27T04:23:23.971Z,92882.86
2018-03-27T04:25:50.389Z,92883.58
2018-03-27T04:28:17.086Z,92884.67
2018-03-27T04:30:43.545Z,92887.95
2018-03-27T04:33:09.860Z,92884.36
2018-03-27T04:35:36.261Z,92880.88
2018-03-27T04:38:02.632Z,92880.98
2018-03-27T04:40:29.011Z,92887.22
2018-03-27T04:42:55.310Z,92893.12
2018-03-27T04:45:21.833Z,92895.33
2018-03-27T04:47:48.165Z,92893.42
2018-03-27T04:50:14.507Z,92894.25
2018-03-27T04:52:40.805Z,92898.17
2018-03-27T04:55:08.138Z,92897.94
2018-03-27T04:57:34.637Z,92903.01
2018-03-27T05:00:00.943Z,92906.95
2018-03-27T05:02:27.293Z,92901.12
2018-03-27T05:04:53.653Z,92901.89
2018-03-27T05:07:19.955Z,92897.11
2018-03-27T05:09:46.362Z,92897.70
2018-03-27T05:12:12.741Z,92899.00
2018-03-27T05:14:39.004Z,92904.19
2018-03-27T05:17:05.389Z,92908.39
2018-03-27T05:19:31.727Z,92912.69
2018-03-27T05:21:58.038Z,92918.52
2018-03-27T05:24:24.361Z,92917.94
2018-03-27T05:26:50.855Z,92919.05
2018-03-27T05:29:17.392Z,92922.58
2018-03-27T05:31:43.884Z,92921.02
2018-03-27T05:34:10.289Z,92917.95
2018-03-27T05:36:36.669Z,92921.34
2018-03-27T05:39:03.322Z,92925.11
2018-03-27T05:41:29.717Z,92923.09
2018-03-27T05:43:56.254Z,92926.84
2018-03-27T05:46:22.904Z,92922.70
2018-03-27T05:48:49.406Z,92927.55
2018-03-27T05:51:15.839Z,92933.06
2018-03-27T05:53:42.225Z,92931.75
2018-03-27T05:56:08.720Z,92926.50
2018-03-27T05:58:35.164Z,92928.20
2018-03-27T06:01:01.485Z,92929.53
2018-03-27T06:03:27.839Z,92935.10
2018-03-27T06:05:54.241Z,92929.53
2018-03-27T06:08:20.652Z,92930.55
2018-03-27T06:10:47.059Z,92922.69
2018-03-27T06:13:13.405Z,92923.50
2018-03-27T06:15:39.797Z,92931.98
2018-03-27T06:18:06.164Z,92936.22
2018-03-27T06:20:32.581Z,92943.33
2018-03-27T06:22:59.407Z,92949.48
2018-03-27T06:25:25.831Z,92949.98
2018-03-27T06:27:52.170Z,92955.00
2018-03-27T06:30:18.657Z,92948.78
2018-03-27T06:32:45.103Z,92955.39
2018-03-27T06:35:11.528Z,92959.88
2018-03-27T06:37:37.882Z,92959.07
2018-03-27T06:40:04.204Z,92963.39
2018-03-27T06:42:30.578Z,92962.52
2018-03-27T06:44:56.923Z,92959.40
2018-03-27T06:47:23.300Z,92966.53
2018-03-27T06:49:49.646Z,92962.76
2018-03-27T06:52:16.039Z,92960.20
2018-03-27T06:54:42.531Z,92961.02
2018-03-27T06:57:08.934Z,92966.59
2018-03-27T06:59:35.269Z,92964.25
2018-03-27T07:02:01.653Z,92974.95
2018-03-27T07:04:27.984Z,92976.73
2018-03-27T07:06:54.427Z,92981.22
2018-03-27T07:09:20.825Z,92990.16
2018-03-27T07:11:47.232Z,92986.47
2018-03-27T07:14:13.553Z,92987.08
2018-03-27T07:16:40.059Z,92980.89
2018-03-27T07:19:06.421Z,92992.47
2018-03-27T07:21:32.752Z,92999.38
2018-03-27T07:23:59.207Z,93004.17
2018-03-27T07:26:25.652Z,93004.17
2018-03-27T07:28:52.261Z,93009.78
2018-03-27T07:31:18.610Z,93010.91
2018-03-27T07:33:45.289Z,93010.73
2018-03-27T07:36:11.974Z,93020.23
2018-03-27T07:38:38.403Z,93022.55
2018-03-27T07:41:05.054Z,93023.35
2018-03-27T07:43:31.691Z,93029.97
2018-03-27T07:45:58.168Z,93028.73
2018-03-27T07:48:24.540Z,93035.92
2018-03-27T07:50:50.927Z,93032.73
2018-03-27T07:53:17.348Z,93042.07
2018-03-27T07:55:43.867Z,93037.88
2018-03-27T07:58:10.363Z,93041.22
2018-03-27T08:00:36.738Z,93045.85
2018-03-27T08:03:03.104Z,93047.23
2018-03-27T08:05:29.453Z,93041.92
2018-03-27T08:07:55.848Z,93043.39
2018-03-27T08:10:22.240Z,93042.73
2018-03-27T08:12:49.628Z,93046.14
2018-03-27T08:15:16.076Z,93049.69
2018-03-27T08:17:42.452Z,93048.41
2018-03-27T08:20:08.852Z,93052.88
2018-03-27T08:22:35.276Z,93052.50
2018-03-27T08:25:01.679Z,93053.15
2018-03-27T08:27:28.280Z,93056.73
2018-03-27T08:29:54.701Z,93060.13
2018-03-27T08:32:21.172Z,93056.08
2018-03-27T08:34:47.627Z,93055.02
2018-03-27T08:37:14.077Z,93051.23
2018-03-27T08:39:40.506Z,93060.61
2018-03-27T08:42:07.911Z,93059.64
2018-03-27T08:44:34.336Z,93057.73
2018-03-27T08:47:00.902Z,93060.48
2018-03-27T08:49:27.387Z,93056.14
2018-03-27T08:51:53.823Z,93052.31
2018-03-27T08:54:21.515Z,93057.03
2018-03-27T08:56:48.229Z,93063.72
2018-03-27T08:59:14.649Z,93058.77
2018-03-27T09:01:41.328Z,93065.50
2018-03-27T09:04:07.753Z,93061.62
2018-03-27T09:06:34.216Z,93066.70
2018-03-27T09:09:00.570Z,93057.91
2018-03-27T09:11:26.980Z,93049.52
2018-03-27T09:13:53.363Z,93051.95
2018-03-27T09:16:19.781Z,93048.13
2018-03-27T09:18:46.200Z,93047.94
2018-03-27T09:21:12.617Z,93042.27
2018-03-27T09:23:39.061Z,93040.28
2018-03-27T09:26:05.535Z,93043.86
2018-03-27T09:28:31.996Z,93037.82
2018-03-27T09:30:59.485Z,93039.94
2018-03-27T09:33:25.831Z,93041.91
2018-03-27T09:35:52.989Z,93044.17
2018-03-27T09:38:19.355Z,93050.80
2018-03-27T09:40:45.737Z,93050.32
2018-03-27T09:43:12.224Z,93042.23
2018-03-27T09:45:38.712Z,93051.36
2018-03-27T09:48:05.171Z,93047.41
2018-03-27T09:50:31.708Z,93049.17
2018-03-27T09:52:58.026Z,93051.20
2018-03-27T09:55:24.469Z,93052.28
2018-03-27T09:57:51.216Z,93047.48
2018-03-27T10:00:17.666Z,93045.91
2018-03-27T10:02:44.016Z,93043.23
2018-03-27T10:05:10.680Z,93039.05
2018-03-27T10:07:37.092Z,93043.78
2018-03-27T10:10:03.450Z,93041.45
2018-03-27T10:12:30.015Z,93043.55
2018-03-27T10:14:56.534Z,93046.45
2018-03-27T10:17:23.266Z,93045.03
2018-03-27T10:19:49.678Z,93044.47
2018-03-27T10:22:16.340Z,93042.78
2018-03-27T10:24:42.830Z,93048.92
2018-03-27T10:27:09.372Z,93044.86
2018-03-27T10:29:35.742Z,93046.05
2018-03-27T10:32:02.196Z,93037.88
2018-03-27T10:34:28.691Z,93029.69
2018-03-27T10:36:55.423Z,93036.20
2018-03-27T10:39:21.826Z,93044.88
2018-03-27T10:41:48.246Z,93046.42
2018-03-27T10:44:14.670Z,93048.27
2018-03-27T10:46:41.132Z,93040.19
2018-03-27T10:49:07.559Z,93042.84
2018-03-27T10:51:33.991Z,93043.05
2018-03-27T10:54:00.681Z,93037.87
2018-03-27T10:56:28.216Z,93036.56
2018-03-27T10:58:54.897Z,93035.33
2018-03-27T11:01:22.757Z,93037.51
2018-03-27T11:03:50.729Z,93036.44
2018-03-27T11:06:18.535Z,93031.79
2018-03-27T11:08:45.068Z,93030.96
2018-03-27T11:11:11.514Z,93021.38
2018-03-27T11:13:37.843Z,93021.17
2018-03-27T11:16:05.186Z,93013.72
2018-03-27T11:18:31.560Z,93014.33
2018-03-27T11:20:57.908Z,93016.42
2018-03-27T11:23:24.669Z,93016.67
2018-03-27T11:25:51.192Z,93020.98
2018-03-27T11:28:17.531Z,93027.55
2018-03-27T11:30:43.896Z,93026.89
2018-03-27T11:33:10.305Z,93023.69
2018-03-27T11:35:36.709Z,93019.91
2018-03-27T11:38:03.078Z,93023.70
2018-03-27T11:40:29.476Z,93022.67
2018-03-27T11:42:55.816Z,93025.05
2018-03-27T11:45:22.154Z,93023.72
2018-03-27T11:47:48.571Z,93028.28
2018-03-27T11:50:14.950Z,93032.85
2018-03-27T11:52:41.379Z,93032.38
2018-03-27T11:55:07.803Z,93034.66
2018-03-27T11:57:34.158Z,93036.96
2018-03-27T12:00:00.540Z,93039.34
2018-03-27T12:02:27.001Z,93042.41
2018-03-27T12:04:53.435Z,93043.28
2018-03-27T12:07:20.021Z,93042.28
2018-03-27T12:09:46.510Z,93048.17
2018-03-27T12:12:13.032Z,93050.73
2018-03-27T12:14:39.498Z,93045.14
2018-03-27T12:17:05.986Z,93047.64
2018-03-27T12:19:32.600Z,93035.75
2018-03-27T12:21:59.136Z,93038.73
2018-03-27T12:24:25.527Z,93042.73
2018-03-27T12:26:51.970Z,93034.93
2018-03-27T12:29:19.017Z,93033.14
2018-03-27T12:31:45.551Z,93030.92
2018-03-27T12:34:12.336Z,93039.60
2018-03-27T12:36:38.840Z,93030.52
2018-03-27T12:39:06.032Z,93035.59
2018-03-27T12:41:32.365Z,93039.39
2018-03-27T12:43:58.856Z,93038.29
2018-03-27T12:46:25.458Z,93030.38
2018-03-27T12:48:51.894Z,93024.66
2018-03-27T12:51:18.380Z,93019.92
2018-03-27T12:53:44.793Z,93009.80
2018-03-27T12:56:11.317Z,93017.25
2018-03-27T12:58:37.734Z,93015.27
2018-03-27T13:01:04.138Z,93013.11
2018-03-27T13:03:30.619Z,93020.65
2018-03-27T13:05:57.254Z,93019.77
2018-03-27T13:08:23.692Z,93018.90
2018-03-27T13:10:50.297Z,93013.24
2018-03-27T13:13:16.800Z,93018.55
2018-03-27T13:15:43.330Z,93024.02
2018-03-27T13:18:09.860Z,93036.08
2018-03-27T13:20:36.558Z,93031.84
2018-03-27T13:23:03.055Z,93029.26
2018-03-27T13:25:29.528Z,93021.89
2018-03-27T13:27:56.048Z,93021.63
2018-03-27T13:30:22.435Z,93020.90
2018-03-27T13:32:48.803Z,93024.75
2018-03-27T13:35:15.270Z,93019.09
2018-03-27T13:37:41.711Z,93024.98
2018-03-27T13:40:08.061Z,93029.20
2018-03-27T13:42:34.493Z,93029.44
2018-03-27T13:45:00.982Z,93025.93
2018-03-27T13:47:27.386Z,93019.08
2018-03-27T13:49:53.753Z,93019.64
2018-03-27T13:52:20.139Z,93022.64
2018-03-27T13:54:46.547Z,93026.61
2018-03-27T13:57:13.141Z,93018.78
2018-03-27T13:59:39.538Z,93011.20
2018-03-27T14:02:05.950Z,93008.85
2018-03-27T14:04:32.412Z,93008.72
2018-03-27T14:06:58.869Z,93011.45
2018-03-27T14:09:25.351Z,93001.64
2018-03-27T14:11:51.869Z,93001.12
2018-03-27T14:14:18.383Z,93007.73
2018-03-27T14:16:44.867Z,93006.88
2018-03-27T14:19:11.286Z,93005.82
2018-03-27T14:21:38.860Z,93010.32
2018-03-27T14:24:05.356Z,93006.28
2018-03-27T14:26:31.998Z,93000.05
2018-03-27T14:28:58.386Z,93000.38
2018-03-27T14:31:25.701Z,93005.65
2018-03-27T14:33:52.180Z,93011.47
2018-03-27T14:36:18.860Z,93013.26
2018-03-27T14:38:45.572Z,93010.65
2018-03-27T14:41:12.055Z,93007.15
2018-03-27T14:43:38.579Z,93008.14
2018-03-27T14:46:05.245Z,93011.73
2018-03-27T14:48:31.712Z,93008.50
2018-03-27T14:50:58.151Z,93012.92
2018-03-27T14:53:24.812Z,93018.53
2018-03-27T14:55:52.114Z,93013.15
2018-03-27T14:58:18.597Z,93017.20
2018-03-27T15:00:44.997Z,93012.65
2018-03-27T15:03:11.502Z,93011.31
2018-03-27T15:05:37.937Z,93016.45
2018-03-27T15:08:04.489Z,93010.52
2018-03-27T15:10:31.059Z,93013.95
2018-03-27T15:12:57.776Z,93015.58
2018-03-27T15:15:24.300Z,93019.31
2018-03-27T15:17:51.214Z,93018.60
2018-03-27T15:20:17.734Z,93022.28
2018-03-27T15:22:44.211Z,93018.59
2018-03-27T15:25:10.685Z,93023.28
2018-03-27T15:27:37.161Z,93027.30
2018-03-27T15:30:03.682Z,93019.32
2018-03-27T15:32:30.125Z,93030.00
2018-03-27T15:34:56.476Z,93024.41
2018-03-27T15:37:22.994Z,93023.52
2018-03-27T15:39:49.558Z,93032.61
2018-03-27T15:42:16.022Z,93038.12
2018-03-27T15:44:42.630Z,93041.73
2018-03-27T15:47:09.244Z,93037.73
2018-03-27T15:49:35.800Z,93041.80
2018-03-27T15:52:02.620Z,93045.52
2018-03-27T15:54:30.504Z,93052.88
2018-03-27T15:56:57.757Z,93054.69
2018-03-27T15:59:24.392Z,93048.53
2018-03-27T16:01:50.943Z,93051.91
2018-03-27T16:04:17.391Z,93050.55
2018-03-27T16:06:43.996Z,93050.55
2018-03-27T16:09:10.644Z,93051.95
2018-03-27T16:11:37.142Z,93061.27
2018-03-27T16:14:03.815Z,93061.03
2018-03-27T16:16:30.556Z,93056.03
2018-03-27T16:18:57.449Z,93060.62
2018-03-27T16:21:24.240Z,93068.40
2018-03-27T16:23:51.042Z,93075.98
2018-03-27T16:26:17.571Z,93085.50
2018-03-27T16:28:44.206Z,93087.30
2018-03-27T16:31:10.915Z,93080.33
2018-03-27T16:33:37.556Z,93077.89
2018-03-27T16:36:04.232Z,93077.98
2018-03-27T16:38:30.964Z,93082.95
2018-03-27T16:40:57.790Z,93091.74
2018-03-27T16:43:24.471Z,93090.17
2018-03-27T16:45:51.222Z,93097.05
2018-03-27T16:48:18.066Z,93093.87
2018-03-27T16:50:44.988Z,93098.73
2018-03-27T16:53:11.833Z,93096.15
2018-03-27T16:55:38.794Z,93093.98
2018-03-27T16:58:05.790Z,93089.73
2018-03-27T17:00:32.762Z,93091.19
2018-03-27T17:02:59.590Z,93093.52
2018-03-27T17:05:26.347Z,93098.18
2018-03-27T17:07:53.307Z,93100.20
2018-03-27T17:10:20.157Z,93099.03
2018-03-27T17:12:46.970Z,93100.23
2018-03-27T17:15:13.958Z,93102.58
2018-03-27T17:17:40.981Z,93109.02
2018-03-27T17:20:07.900Z,93109.05
2018-03-27T17:22:35.058Z,93113.73
2018-03-27T17:25:01.968Z,93120.98
2018-03-27T17:27:28.866Z,93125.91
2018-03-27T17:29:55.793Z,93124.42
2018-03-27T17:32:22.862Z,93129.13
2018-03-27T17:34:49.885Z,93130.73
2018-03-27T17:37:16.763Z,93143.94
2018-03-27T17:39:43.535Z,93140.28
2018-03-27T17:42:10.287Z,93138.42
2018-03-27T17:44:37.112Z,93145.72
2018-03-27T17:47:04.023Z,93144.44
2018-03-27T17:49:30.756Z,93152.64
2018-03-27T17:51:59.343Z,93156.66
2018-03-27T17:54:26.127Z,93158.39
2018-03-27T17:56:53.192Z,93159.88
2018-03-27T17:59:20.683Z,93158.48
2018-03-27T18:01:47.397Z,93160.16
2018-03-27T18:04:14.153Z,93162.00
2018-03-27T18:06:41.668Z,93161.19
2018-03-27T18:09:08.481Z,93161.05
2018-03-27T18:11:35.831Z,93164.08
2018-03-27T18:14:02.780Z,93172.02
2018-03-27T18:16:30.560Z,93175.97
2018-03-27T18:18:57.450Z,93181.22
2018-03-27T18:21:24.527Z,93180.09
2018-03-27T18:23:51.536Z,93191.72
2018-03-27T18:26:18.429Z,93194.20
2018-03-27T18:28:45.587Z,93197.31
2018-03-27T18:31:13.010Z,93198.72
2018-03-27T18:33:39.873Z,93199.95
2018-03-27T18:36:06.596Z,93207.50
2018-03-27T18:38:33.471Z,93204.36
2018-03-27T18:41:00.290Z,93206.84
2018-03-27T18:43:27.063Z,93215.27
2018-03-27T18:45:54.331Z,93216.61
2018-03-27T18:48:21.255Z,93221.42
2018-03-27T18:50:49.429Z,93226.15
2018-03-27T18:53:17.188Z,93228.86
2018-03-27T18:55:47.260Z,93228.08
2018-03-27T18:58:14.170Z,93235.05
2018-03-27T19:00:41.018Z,93234.34
2018-03-27T19:03:07.870Z,93236.51
2018-03-27T19:05:35.022Z,93239.94
2018-03-27T19:08:02.279Z,93249.42
2018-03-27T19:10:30.292Z,93254.56
2018-03-27T19:12:57.749Z,93257.42
2018-03-27T19:15:25.965Z,93255.55
2018-03-27T19:17:53.026Z,93261.15
2018-03-27T19:20:20.225Z,93260.91
2018-03-27T19:22:47.284Z,93260.23
2018-03-27T19:25:14.487Z,93270.86
2018-03-27T19:27:41.363Z,93273.00
2018-03-27T19:30:08.240Z,93268.34
2018-03-27T19:32:35.308Z,93276.13
2018-03-27T19:35:02.280Z,93277.77
2018-03-27T19:37:29.182Z,93277.72
2018-03-27T19:39:56.199Z,93284.17
2018-03-27T19:42:24.126Z,93287.56
2018-03-27T19:44:51.031Z,93283.27
2018-03-27T19:47:18.260Z,93286.37
2018-03-27T19:49:45.440Z,93283.40
2018-03-27T19:52:12.348Z,93284.27
2018-03-27T19:54:40.075Z,93280.14
2018-03-27T19:57:07.116Z,93274.59
2018-03-27T19:59:33.909Z,93271.90
2018-03-27T20:02:00.771Z,93270.13
2018-03-27T20:04:27.420Z,93265.91
2018-03-27T20:06:54.281Z,93258.13
2018-03-27T20:09:21.084Z,93255.66
2018-03-27T20:11:47.839Z,93263.07
2018-03-27T20:14:14.731Z,93262.79
2018-03-27T20:16:41.713Z,93270.75
2018-03-27T20:19:08.717Z,93269.39
2018-03-27T20:21:35.811Z,93268.20
2018-03-27T20:24:02.855Z,93265.13
2018-03-27T20:26:29.629Z,93259.95
2018-03-27T20:28:57.161Z,93260.00
2018-03-27T20:31:24.490Z,93257.94
2018-03-27T20:33:52.015Z,93258.58
2018-03-27T20:36:19.762Z,93259.62
2018-03-27T20:38:46.530Z,93265.67
2018-03-27T20:41:13.422Z,93257.20
2018-03-27T20:43:40.295Z,93259.35
2018-03-27T20:46:07.035Z,93253.41
2018-03-27T20:48:33.841Z,93261.23
2018-03-27T20:51:00.519Z,93255.77
2018-03-27T20:53:27.485Z,93257.52
2018-03-27T20:55:54.331Z,93251.52
2018-03-27T20:58:21.181Z,93250.28
2018-03-27T21:00:48.050Z,93245.29
2018-03-27T21:03:16.569Z,93241.91
2018-03-27T21:05:43.308Z,93241.86
2018-03-27T21:08:10.062Z,93249.23
2018-03-27T21:10:36.704Z,93247.85
2018-03-27T21:13:03.505Z,93243.51
2018-03-27T21:15:30.209Z,93240.91
2018-03-27T21:17:56.951Z,93239.80
2018-03-27T21:20:23.606Z,93246.10
2018-03-27T21:22:50.305Z,93241.94
2018-03-27T21:25:17.258Z,93243.30
2018-03-27T21:27:43.811Z,93244.12
2018-03-27T21:30:10.488Z,93243.30
2018-03-27T21:32:36.970Z,93243.72
2018-03-27T21:35:03.419Z,93246.73
2018-03-27T21:37:29.913Z,93247.20
2018-03-27T21:39:56.307Z,93245.54
2018-03-27T21:42:22.658Z,93245.63
2018-03-27T21:44:49.181Z,93237.45
2018-03-27T21:47:15.696Z,93233.36
2018-03-27T21:49:42.153Z,93230.25
2018-03-27T21:52:08.650Z,93227.95
2018-03-27T21:54:35.009Z,93223.50
2018-03-27T21:57:01.403Z,93227.02
2018-03-27T21:59:27.817Z,93226.23
2018-03-27T22:01:54.239Z,93231.98
2018-03-27T22:04:20.620Z,93231.37
2018-03-27T22:06:47.069Z,93228.89
2018-03-27T22:09:13.443Z,93222.66
2018-03-27T22:11:39.884Z,93219.00
2018-03-27T22:14:06.302Z,93214.08
2018-03-27T22:16:32.661Z,93211.36
2018-03-27T22:18:58.992Z,93215.40
2018-03-27T22:21:25.496Z,93211.84
2018-03-27T22:23:51.849Z,93212.34
2018-03-27T22:26:18.361Z,93207.05
2018-03-27T22:28:44.820Z,93198.83
2018-03-27T22:31:11.237Z,93204.55
2018-03-27T22:33:37.670Z,93206.77
2018-03-27T22:36:04.127Z,93200.91
2018-03-27T22:38:30.570Z,93206.59
2018-03-27T22:40:57.013Z,93205.44
2018-03-27T22:43:23.414Z,93207.46
2018-03-27T22:45:49.832Z,93207.56
2018-03-27T22:48:16.340Z,93203.98
2018-03-27T22:50:42.883Z,93205.14
2018-03-27T22:53:09.270Z,93210.25
2018-03-27T22:55:35.631Z,93211.00
2018-03-27T22:58:02.198Z,93204.86
2018-03-27T23:00:28.562Z,93200.16
2018-03-27T23:02:55.078Z,93203.50
2018-03-27T23:05:21.508Z,93198.83
2018-03-27T23:07:48.033Z,93192.36
2018-03-27T23:10:14.457Z,93188.15
2018-03-27T23:12:40.986Z,93182.70
2018-03-27T23:15:07.494Z,93194.30
2018-03-27T23:17:33.901Z,93205.52
2018-03-27T23:20:00.436Z,93204.53
2018-03-27T23:22:31.018Z,93196.69
2018-03-27T23:24:57.544Z,93193.14
2018-03-27T23:27:24.026Z,93196.37
2018-03-27T23:29:50.524Z,93195.05
2018-03-27T23:32:17.058Z,93200.95
2018-03-27T23:34:43.545Z,93194.42
2018-03-27T23:37:10.384Z,93191.83
2018-03-27T23:39:36.739Z,93184.07
2018-03-27T23:42:03.478Z,93179.73
2018-03-27T23:44:30.052Z,93184.44
2018-03-27T23:46:56.770Z,93184.89
2018-03-27T23:49:23.361Z,93180.59
2018-03-27T23:51:49.785Z,93179.19
2018-03-27T23:54:16.319Z,93175.30
2018-03-27T23:56:43.009Z,93179.52
2018-03-27T23:59:09.343Z,93180.42
